Time;durP1;ratioP1;P1;durP2;ratioP2;P2;SDS_P1;SDS_P2;PMS_P1;PMS_P2;Temp;Humidity;BMP_temperature;BMP_pressure;BME280_temperature;BME280_humidity;BME280_pressure;Samples;Min_cycle;Max_cycle;Signal;HPM_P1;HPM_P2
2023/04/19 00:00:07;;;;;;;16.65;14.88;;;12.70;99.90;;;;;;2092317;28;20032;-71
2023/04/19 00:01:08;;;;;;;18.45;15.48;;;12.70;99.90;;;;;;2092414;28;20028;-72
2023/04/19 00:02:08;;;;;;;17.38;14.35;;;12.70;99.90;;;;;;2092988;28;20025;-71
2023/04/19 00:03:09;;;;;;;15.88;14.32;;;12.70;99.90;;;;;;2093946;28;20017;-71
2023/04/19 00:04:10;;;;;;;17.70;14.35;;;12.70;99.90;;;;;;2093668;28;20029;-71
2023/04/19 00:05:12;;;;;;;16.75;15.15;;;12.70;99.90;;;;;;2095867;28;20028;-71
2023/04/19 00:06:14;;;;;;;17.52;13.90;;;12.70;99.90;;;;;;2091825;28;20020;-72
2023/04/19 00:07:15;;;;;;;16.88;14.65;;;12.70;99.90;;;;;;2092617;28;20017;-71
2023/04/19 00:08:16;;;;;;;17.15;13.88;;;12.70;99.90;;;;;;2093430;28;20063;-71
2023/04/19 00:09:16;;;;;;;16.08;13.48;;;12.70;99.90;;;;;;2092109;28;20025;-72
2023/04/19 00:10:17;;;;;;;18.17;14.55;;;12.80;99.90;;;;;;2090747;28;20025;-71
2023/04/19 00:11:18;;;;;;;15.30;13.70;;;12.80;99.90;;;;;;2091582;28;20546;-71
2023/04/19 00:12:18;;;;;;;15.55;13.75;;;12.80;99.90;;;;;;2088840;28;20098;-71
2023/04/19 00:13:19;;;;;;;17.50;14.02;;;12.70;99.90;;;;;;2092897;28;20040;-72
2023/04/19 00:14:20;;;;;;;16.35;14.73;;;12.70;99.90;;;;;;2091014;28;20021;-71
2023/04/19 00:15:20;;;;;;;15.45;13.85;;;12.80;99.90;;;;;;2092309;28;20029;-72
2023/04/19 00:16:21;;;;;;;15.80;13.98;;;12.80;99.90;;;;;;2093316;28;20507;-71
2023/04/19 00:17:21;;;;;;;14.93;13.45;;;12.80;99.90;;;;;;2093603;28;20024;-72
2023/04/19 00:18:22;;;;;;;15.73;13.60;;;12.80;99.90;;;;;;2093163;28;20035;-72
2023/04/19 00:19:22;;;;;;;16.70;13.45;;;12.80;99.90;;;;;;2092141;28;20115;-70
2023/04/19 00:20:23;;;;;;;16.48;13.70;;;12.80;99.90;;;;;;2091508;28;20408;-72
2023/04/19 00:21:23;;;;;;;15.68;13.63;;;12.80;99.90;;;;;;2090218;28;20036;-71
2023/04/19 00:22:25;;;;;;;15.73;13.98;;;12.80;99.90;;;;;;2093418;28;20103;-72
2023/04/19 00:23:25;;;;;;;17.88;13.75;;;12.80;99.90;;;;;;2092109;28;20180;-71
2023/04/19 00:24:26;;;;;;;15.38;13.65;;;12.80;99.90;;;;;;2095233;28;20150;-71
2023/04/19 00:25:28;;;;;;;18.48;14.63;;;12.80;99.90;;;;;;2095914;28;20051;-72
2023/04/19 00:26:28;;;;;;;18.52;14.60;;;12.80;99.90;;;;;;2092686;28;20025;-72
2023/04/19 00:27:29;;;;;;;16.65;14.73;;;12.80;99.90;;;;;;2092156;28;20017;-72
2023/04/19 00:28:30;;;;;;;16.58;14.52;;;12.80;99.90;;;;;;2090401;28;20052;-72
2023/04/19 00:29:30;;;;;;;18.08;14.85;;;12.80;99.90;;;;;;2092909;28;20056;-72
2023/04/19 00:30:31;;;;;;;15.73;14.13;;;12.80;99.90;;;;;;2092427;28;20118;-72
2023/04/19 00:31:31;;;;;;;15.75;14.02;;;12.80;99.90;;;;;;2092462;28;20032;-72
2023/04/19 00:32:32;;;;;;;15.73;13.68;;;12.80;99.90;;;;;;2085209;28;20032;-72
2023/04/19 00:33:32;;;;;;;15.52;13.98;;;12.80;99.90;;;;;;2091888;28;20199;-71
2023/04/19 00:34:33;;;;;;;17.58;14.88;;;12.80;99.90;;;;;;2090142;28;20040;-72
2023/04/19 00:35:33;;;;;;;16.45;14.63;;;12.80;99.90;;;;;;2093832;28;20036;-72
2023/04/19 00:36:34;;;;;;;19.23;14.23;;;12.80;99.90;;;;;;2091777;28;20032;-72
2023/04/19 00:37:35;;;;;;;17.15;14.75;;;12.80;99.90;;;;;;2093491;28;20104;-72
2023/04/19 00:38:35;;;;;;;16.45;14.70;;;12.80;99.90;;;;;;2089006;28;20029;-72
2023/04/19 00:39:36;;;;;;;16.25;14.63;;;12.80;99.90;;;;;;2084790;28;20859;-72
2023/04/19 00:40:37;;;;;;;18.15;14.70;;;12.80;99.90;;;;;;2093000;28;20499;-71
2023/04/19 00:41:37;;;;;;;16.27;14.48;;;12.90;99.90;;;;;;2092512;28;20033;-72
2023/04/19 00:42:38;;;;;;;17.73;14.77;;;12.80;99.90;;;;;;2091616;28;20483;-72
2023/04/19 00:43:39;;;;;;;19.08;15.63;;;12.80;99.90;;;;;;2091971;28;20021;-72
2023/04/19 00:44:39;;;;;;;18.65;15.52;;;12.90;99.90;;;;;;2092974;28;22390;-71
2023/04/19 00:45:40;;;;;;;15.52;13.80;;;12.80;99.90;;;;;;2091136;28;20485;-71
2023/04/19 00:46:42;;;;;;;19.08;14.02;;;12.80;99.90;;;;;;2092704;28;20112;-72
2023/04/19 00:47:42;;;;;;;16.23;14.40;;;12.80;99.90;;;;;;2094282;28;20040;-71
2023/04/19 00:48:44;;;;;;;18.65;14.52;;;12.80;99.90;;;;;;2095085;28;20044;-72
2023/04/19 00:49:44;;;;;;;16.60;14.93;;;12.80;99.90;;;;;;2092589;28;20020;-72
2023/04/19 00:50:45;;;;;;;16.27;14.23;;;12.80;99.90;;;;;;2089554;28;20497;-72
2023/04/19 00:51:46;;;;;;;19.77;15.55;;;12.80;99.90;;;;;;2091590;28;20167;-72
2023/04/19 00:52:47;;;;;;;18.88;15.45;;;12.80;99.90;;;;;;2095171;28;20032;-72
2023/04/19 00:53:48;;;;;;;12.88;11.57;;;12.80;99.90;;;;;;2093395;28;20029;-71
2023/04/19 00:54:49;;;;;;;17.27;14.43;;;12.80;99.90;;;;;;2090886;28;20032;-72
2023/04/19 00:55:50;;;;;;;15.35;13.88;;;12.80;99.90;;;;;;2089849;28;20134;-72
2023/04/19 00:56:50;;;;;;;16.33;14.63;;;12.80;99.90;;;;;;2091917;28;20040;-72
2023/04/19 00:57:52;;;;;;;15.43;13.68;;;12.80;99.90;;;;;;2091496;28;20028;-72
2023/04/19 00:58:53;;;;;;;15.55;13.77;;;12.80;99.90;;;;;;2093146;28;20074;-72
2023/04/19 00:59:55;;;;;;;16.73;14.98;;;12.80;99.90;;;;;;2091361;28;20029;-72
2023/04/19 01:00:56;;;;;;;18.15;14.70;;;12.80;99.90;;;;;;2091963;28;20031;-72
2023/04/19 01:01:56;;;;;;;15.32;13.82;;;12.80;99.90;;;;;;2088599;28;20056;-72
2023/04/19 01:02:57;;;;;;;18.30;14.95;;;12.80;99.90;;;;;;2091833;28;20142;-72
2023/04/19 01:03:57;;;;;;;16.95;14.80;;;12.70;99.90;;;;;;2083934;28;20057;-72
2023/04/19 01:04:58;;;;;;;17.50;15.40;;;12.70;99.90;;;;;;2085560;28;20051;-71
2023/04/19 01:05:59;;;;;;;18.77;14.40;;;12.70;99.90;;;;;;2092941;28;20028;-72
2023/04/19 01:07:01;;;;;;;15.48;13.98;;;12.70;99.90;;;;;;2091098;28;20123;-71
2023/04/19 01:08:02;;;;;;;16.27;14.55;;;12.70;99.90;;;;;;2093176;28;20025;-71
2023/04/19 01:09:03;;;;;;;16.20;14.48;;;12.70;99.90;;;;;;2093214;28;20016;-71
2023/04/19 01:10:04;;;;;;;17.08;15.30;;;12.70;99.90;;;;;;2091195;28;20630;-72
2023/04/19 01:11:06;;;;;;;17.67;15.73;;;12.70;99.90;;;;;;2091652;28;20025;-72
2023/04/19 01:12:07;;;;;;;18.27;15.63;;;12.70;99.90;;;;;;2093546;28;20050;-72
2023/04/19 01:13:08;;;;;;;17.42;15.07;;;12.70;99.90;;;;;;2094764;28;20067;-72
2023/04/19 01:14:08;;;;;;;18.45;15.40;;;12.60;99.90;;;;;;2091493;28;20028;-72
2023/04/19 01:15:09;;;;;;;16.95;15.20;;;12.60;99.90;;;;;;2091050;28;20511;-71
2023/04/19 01:16:10;;;;;;;16.90;15.20;;;12.60;99.90;;;;;;2093287;28;20082;-72
2023/04/19 01:17:12;;;;;;;17.00;15.40;;;12.60;99.90;;;;;;2094503;28;20094;-71
2023/04/19 01:18:12;;;;;;;16.77;15.07;;;12.60;99.90;;;;;;2092029;28;20028;-72
2023/04/19 01:19:13;;;;;;;16.02;14.43;;;12.60;99.90;;;;;;2091981;28;20029;-72
2023/04/19 01:20:14;;;;;;;16.17;14.48;;;12.60;99.90;;;;;;2091038;28;20024;-72
2023/04/19 01:21:14;;;;;;;17.25;15.55;;;12.60;99.90;;;;;;2093904;28;20136;-72
2023/04/19 01:22:24;;;;;;;16.70;14.98;;;12.60;99.90;;;;;;2095230;28;20036;-71
2023/04/19 01:23:24;;;;;;;17.00;15.15;;;12.60;99.90;;;;;;2094998;28;20016;-71
2023/04/19 01:24:25;;;;;;;16.40;14.57;;;12.60;99.90;;;;;;2095971;28;20025;-72
2023/04/19 01:25:25;;;;;;;16.30;14.60;;;12.60;99.90;;;;;;2094267;28;20031;-71
2023/04/19 01:26:26;;;;;;;17.52;15.00;;;12.60;99.90;;;;;;2095538;28;20051;-72
2023/04/19 01:27:26;;;;;;;16.98;15.18;;;12.60;99.90;;;;;;2095801;28;20036;-72
2023/04/19 01:28:27;;;;;;;16.30;14.55;;;12.60;99.90;;;;;;2094200;28;20032;-72
2023/04/19 01:29:28;;;;;;;16.05;14.38;;;12.60;99.90;;;;;;2094034;28;20105;-72
2023/04/19 01:30:28;;;;;;;16.35;14.55;;;12.60;99.90;;;;;;2094093;28;20111;-72
2023/04/19 01:31:29;;;;;;;15.95;14.30;;;12.60;99.90;;;;;;2095319;28;20028;-71
2023/04/19 01:32:29;;;;;;;19.38;15.05;;;12.60;99.90;;;;;;2092247;28;20039;-72
2023/04/19 01:33:30;;;;;;;16.55;14.73;;;12.60;99.90;;;;;;2092170;28;20032;-72
2023/04/19 01:34:30;;;;;;;15.85;14.18;;;12.60;99.90;;;;;;2097028;28;20016;-72
2023/04/19 01:35:31;;;;;;;16.33;14.63;;;12.60;99.90;;;;;;2086595;28;20503;-71
2023/04/19 01:36:31;;;;;;;22.30;15.80;;;12.60;99.90;;;;;;2092648;28;20032;-72
2023/04/19 01:37:34;;;;;;;16.23;13.85;;;12.60;99.90;;;;;;2094865;28;20089;-71
2023/04/19 01:38:35;;;;;;;16.38;13.65;;;12.60;99.90;;;;;;2088334;28;20040;-72
2023/04/19 01:39:35;;;;;;;15.75;14.13;;;12.50;99.90;;;;;;2091413;28;20059;-71
2023/04/19 01:40:36;;;;;;;16.80;14.77;;;12.50;99.90;;;;;;2095706;28;20029;-72
2023/04/19 01:41:37;;;;;;;16.48;14.65;;;12.50;99.90;;;;;;2094676;28;20519;-72
2023/04/19 01:42:37;;;;;;;14.98;13.48;;;12.60;99.90;;;;;;2093480;28;20029;-72
2023/04/19 01:43:38;;;;;;;15.75;13.80;;;12.60;99.90;;;;;;2095823;28;20025;-72
2023/04/19 01:44:38;;;;;;;15.80;14.25;;;12.60;99.90;;;;;;2093731;28;20056;-72
2023/04/19 01:45:39;;;;;;;15.23;13.73;;;12.60;99.90;;;;;;2095809;28;20047;-71
2023/04/19 01:46:41;;;;;;;16.15;14.45;;;12.60;99.90;;;;;;2094395;28;20024;-72
2023/04/19 01:47:42;;;;;;;15.95;14.35;;;12.60;99.90;;;;;;2093644;28;20500;-71
2023/04/19 01:48:42;;;;;;;18.10;13.77;;;12.60;99.90;;;;;;2092967;28;20443;-71
2023/04/19 01:49:43;;;;;;;17.25;14.50;;;12.60;99.90;;;;;;2092604;28;20035;-71
2023/04/19 01:50:43;;;;;;;16.58;14.38;;;12.60;99.90;;;;;;2090490;28;20071;-72
2023/04/19 01:51:45;;;;;;;14.70;13.13;;;12.60;99.90;;;;;;2090508;28;20033;-72
2023/04/19 01:52:45;;;;;;;15.07;13.52;;;12.60;99.90;;;;;;2094291;28;20029;-72
2023/04/19 01:53:51;;;;;;;15.35;13.65;;;12.60;99.90;;;;;;2093875;28;20300;-72
2023/04/19 01:54:52;;;;;;;17.77;14.00;;;12.60;99.90;;;;;;2093457;28;20020;-72
2023/04/19 01:55:52;;;;;;;14.85;13.43;;;12.60;99.90;;;;;;2091780;28;20477;-72
2023/04/19 01:56:53;;;;;;;15.48;12.98;;;12.60;99.90;;;;;;2093964;28;20535;-71
2023/04/19 01:57:54;;;;;;;17.23;13.35;;;12.60;99.90;;;;;;2092485;28;20028;-72
2023/04/19 01:58:55;;;;;;;16.33;14.32;;;12.50;99.90;;;;;;2095694;28;20073;-71
2023/04/19 01:59:56;;;;;;;15.65;13.68;;;12.60;99.90;;;;;;2093666;28;20400;-71
2023/04/19 02:00:56;;;;;;;14.13;12.73;;;12.60;99.90;;;;;;2092473;28;20028;-71
2023/04/19 02:01:57;;;;;;;16.13;13.60;;;12.60;99.90;;;;;;2094039;28;20067;-72
2023/04/19 02:02:58;;;;;;;17.23;14.40;;;12.60;99.90;;;;;;2090325;28;20039;-72
2023/04/19 02:03:58;;;;;;;14.10;12.65;;;12.60;99.90;;;;;;2093174;28;20768;-72
2023/04/19 02:04:59;;;;;;;13.98;12.57;;;12.60;99.90;;;;;;2092088;28;20107;-72
2023/04/19 02:05:59;;;;;;;14.82;12.65;;;12.60;99.90;;;;;;2089788;28;20067;-71
2023/04/19 02:07:00;;;;;;;15.13;12.70;;;12.60;99.90;;;;;;2091699;28;20029;-72
2023/04/19 02:08:00;;;;;;;14.10;12.68;;;12.60;99.90;;;;;;2095340;28;20021;-72
2023/04/19 02:09:01;;;;;;;13.30;12.00;;;12.60;99.90;;;;;;2093352;28;20028;-71
2023/04/19 02:10:02;;;;;;;17.02;12.50;;;12.60;99.90;;;;;;2094674;28;20052;-71
2023/04/19 02:11:10;;;;;;;16.92;12.63;;;12.60;99.90;;;;;;2092008;28;20033;-71
2023/04/19 02:12:10;;;;;;;14.70;13.10;;;12.60;99.90;;;;;;2089426;28;20115;-71
2023/04/19 02:13:11;;;;;;;14.85;12.55;;;12.60;99.90;;;;;;2084570;28;20078;-71
2023/04/19 02:14:11;;;;;;;14.80;12.07;;;12.60;99.90;;;;;;2093532;28;20155;-72
2023/04/19 02:15:12;;;;;;;14.73;12.93;;;12.60;99.90;;;;;;2092882;28;20035;-72
2023/04/19 02:16:12;;;;;;;15.70;13.13;;;12.60;99.90;;;;;;2092958;28;20097;-72
2023/04/19 02:17:13;;;;;;;13.63;12.32;;;12.60;99.90;;;;;;2092749;28;20385;-72
2023/04/19 02:18:13;;;;;;;14.35;12.77;;;12.60;99.90;;;;;;2094149;28;20023;-72
2023/04/19 02:19:14;;;;;;;15.65;13.27;;;12.60;99.90;;;;;;2092469;28;20104;-72
2023/04/19 02:20:14;;;;;;;14.60;12.13;;;12.60;99.90;;;;;;2093624;28;20055;-72
2023/04/19 02:21:15;;;;;;;14.07;11.90;;;12.60;99.90;;;;;;2093142;28;20028;-72
2023/04/19 02:22:15;;;;;;;14.18;11.90;;;12.60;99.90;;;;;;2093342;28;20067;-72
2023/04/19 02:23:16;;;;;;;13.75;12.23;;;12.60;99.90;;;;;;2094130;28;20039;-72
2023/04/19 02:24:16;;;;;;;12.48;11.10;;;12.60;99.90;;;;;;2095212;28;20035;-71
2023/04/19 02:25:18;;;;;;;13.38;11.75;;;12.60;99.90;;;;;;2091058;28;20404;-72
2023/04/19 02:26:19;;;;;;;16.70;11.18;;;12.60;99.90;;;;;;2091705;28;20087;-72
2023/04/19 02:27:19;;;;;;;12.43;11.23;;;12.60;99.90;;;;;;2091835;28;20153;-73
2023/04/19 02:28:20;;;;;;;13.50;11.93;;;12.60;99.90;;;;;;2095455;28;20051;-72
2023/04/19 02:29:21;;;;;;;12.38;10.90;;;12.60;99.90;;;;;;2096100;28;20103;-72
2023/04/19 02:30:21;;;;;;;12.70;11.32;;;12.60;99.90;;;;;;2091307;28;20530;-72
2023/04/19 02:31:22;;;;;;;12.32;11.13;;;12.60;99.90;;;;;;2095674;28;20492;-72
2023/04/19 02:32:22;;;;;;;10.90;9.70;;;12.60;99.90;;;;;;2092865;28;20024;-71
2023/04/19 02:33:24;;;;;;;11.73;10.15;;;12.60;99.90;;;;;;2092714;28;20031;-72
2023/04/19 02:34:26;;;;;;;10.77;9.77;;;12.60;99.90;;;;;;2094111;28;20094;-72
2023/04/19 02:35:27;;;;;;;11.25;9.30;;;12.60;99.90;;;;;;2092232;28;20131;-72
2023/04/19 02:36:27;;;;;;;11.80;9.13;;;12.60;99.90;;;;;;2092308;28;20029;-72
2023/04/19 02:37:28;;;;;;;10.23;8.75;;;12.60;99.90;;;;;;2091620;28;20174;-71
2023/04/19 02:38:28;;;;;;;11.20;8.95;;;12.60;99.90;;;;;;2091521;28;20025;-71
2023/04/19 02:39:29;;;;;;;10.35;8.10;;;12.60;99.90;;;;;;2091780;28;20092;-72
2023/04/19 02:40:30;;;;;;;11.32;8.80;;;12.60;99.90;;;;;;2089627;28;20529;-72
2023/04/19 02:41:31;;;;;;;9.88;8.88;;;12.60;99.90;;;;;;2092092;28;20024;-72
2023/04/19 02:42:31;;;;;;;9.25;8.05;;;12.60;99.90;;;;;;2094047;28;20119;-71
2023/04/19 02:43:32;;;;;;;9.55;8.15;;;12.60;99.90;;;;;;2092053;28;20123;-72
2023/04/19 02:44:32;;;;;;;9.75;8.75;;;12.60;99.90;;;;;;2092018;28;20032;-71
2023/04/19 02:45:33;;;;;;;8.77;7.82;;;12.60;99.90;;;;;;2091769;28;20028;-72
2023/04/19 02:46:34;;;;;;;8.77;7.82;;;12.60;99.90;;;;;;2093316;28;20032;-72
2023/04/19 02:47:34;;;;;;;8.95;8.07;;;12.60;99.90;;;;;;2091691;28;20029;-72
2023/04/19 02:48:35;;;;;;;8.02;7.22;;;12.60;99.90;;;;;;2095529;28;20024;-71
2023/04/19 02:49:40;;;;;;;9.95;7.72;;;12.60;99.90;;;;;;2086191;28;20049;-72
2023/04/19 02:50:40;;;;;;;8.00;7.20;;;12.60;99.90;;;;;;2091810;28;20078;-71
2023/04/19 02:51:41;;;;;;;8.20;7.20;;;12.60;99.90;;;;;;2095396;28;20044;-72
2023/04/19 02:52:41;;;;;;;9.15;8.25;;;12.60;99.90;;;;;;2092546;28;20094;-71
2023/04/19 02:53:42;;;;;;;8.80;7.55;;;12.60;99.90;;;;;;2091414;28;20040;-72
2023/04/19 02:54:42;;;;;;;8.88;7.97;;;12.60;99.90;;;;;;2091766;28;20544;-71
2023/04/19 02:55:43;;;;;;;8.60;7.03;;;12.60;99.90;;;;;;2091674;28;20488;-71
2023/04/19 02:56:43;;;;;;;9.15;7.57;;;12.60;99.90;;;;;;2093250;28;20394;-71
2023/04/19 02:57:44;;;;;;;10.02;7.88;;;12.60;99.90;;;;;;2091066;28;20043;-71
2023/04/19 02:58:45;;;;;;;9.80;7.40;;;12.60;99.90;;;;;;2092276;28;20033;-72
2023/04/19 02:59:45;;;;;;;9.45;7.95;;;12.60;99.90;;;;;;2089131;28;20158;-72
2023/04/19 03:00:45;;;;;;;8.35;7.43;;;12.60;99.90;;;;;;2094831;28;20020;-71
2023/04/19 03:01:46;;;;;;;7.50;6.80;;;12.60;99.90;;;;;;2093338;28;20033;-72
2023/04/19 03:02:47;;;;;;;7.70;6.95;;;12.60;99.90;;;;;;2093107;28;20040;-72
2023/04/19 03:03:47;;;;;;;7.78;6.97;;;12.60;99.90;;;;;;2092756;28;20056;-71
2023/04/19 03:04:48;;;;;;;9.23;7.30;;;12.60;99.90;;;;;;2095634;28;20035;-71
2023/04/19 03:05:48;;;;;;;9.00;7.30;;;12.60;99.90;;;;;;2092706;28;20086;-71
2023/04/19 03:06:49;;;;;;;9.90;7.00;;;12.60;99.90;;;;;;2090984;28;20210;-71
2023/04/19 03:07:50;;;;;;;8.25;7.55;;;12.60;99.90;;;;;;2094297;28;20025;-72
2023/04/19 03:08:50;;;;;;;10.35;7.15;;;12.60;99.90;;;;;;2093338;28;20029;-71
2023/04/19 03:09:51;;;;;;;8.60;7.55;;;12.60;99.90;;;;;;2093090;28;20496;-72
2023/04/19 03:10:52;;;;;;;7.93;6.53;;;12.60;99.90;;;;;;2092281;28;20465;-71
2023/04/19 03:11:52;;;;;;;8.57;7.32;;;12.60;99.90;;;;;;2092676;28;20157;-71
2023/04/19 03:12:53;;;;;;;7.90;6.95;;;12.60;99.90;;;;;;2094876;28;20683;-72
2023/04/19 03:13:53;;;;;;;7.13;6.30;;;12.60;99.90;;;;;;2095642;28;20028;-72
2023/04/19 03:14:54;;;;;;;8.98;6.40;;;12.60;99.90;;;;;;2092888;28;20032;-72
2023/04/19 03:15:54;;;;;;;7.90;6.57;;;12.50;99.90;;;;;;2092392;28;20136;-72
2023/04/19 03:16:55;;;;;;;7.32;6.10;;;12.50;99.90;;;;;;2094285;28;20085;-72
2023/04/19 03:17:55;;;;;;;7.13;6.35;;;12.50;99.90;;;;;;2093381;28;20036;-71
2023/04/19 03:18:56;;;;;;;8.18;6.68;;;12.50;99.90;;;;;;2092738;28;20075;-72
2023/04/19 03:19:56;;;;;;;6.47;5.88;;;12.50;99.90;;;;;;2093542;28;20421;-72
2023/04/19 03:20:57;;;;;;;7.15;6.45;;;12.50;99.90;;;;;;2092992;28;20036;-71
2023/04/19 03:21:57;;;;;;;6.57;5.95;;;12.50;99.90;;;;;;2091603;28;20466;-72
2023/04/19 03:22:58;;;;;;;7.18;6.47;;;12.50;99.90;;;;;;2094632;28;20362;-71
2023/04/19 03:23:58;;;;;;;7.72;6.10;;;12.50;99.90;;;;;;2092693;28;20032;-71
2023/04/19 03:24:59;;;;;;;8.68;6.15;;;12.50;99.90;;;;;;2090398;28;20036;-72
2023/04/19 03:26:00;;;;;;;12.38;6.18;;;12.50;99.90;;;;;;2092749;28;20024;-71
2023/04/19 03:27:01;;;;;;;5.72;5.22;;;12.50;99.90;;;;;;2093365;28;20354;-71
2023/04/19 03:28:02;;;;;;;6.68;5.90;;;12.50;99.90;;;;;;2094153;28;20024;-71
2023/04/19 03:29:02;;;;;;;7.82;6.03;;;12.50;99.90;;;;;;2091615;28;20059;-71
2023/04/19 03:30:04;;;;;;;8.90;6.50;;;12.50;99.90;;;;;;2092878;28;20027;-72
2023/04/19 03:31:04;;;;;;;7.40;6.00;;;12.50;99.90;;;;;;2093437;28;20585;-71
2023/04/19 03:32:06;;;;;;;6.38;5.68;;;12.50;99.90;;;;;;2093322;28;20060;-72
2023/04/19 03:33:06;;;;;;;8.63;6.13;;;12.50;99.90;;;;;;2093392;28;20031;-71
2023/04/19 03:34:07;;;;;;;6.88;6.18;;;12.50;99.90;;;;;;2095301;28;20027;-72
2023/04/19 03:35:08;;;;;;;9.57;6.03;;;12.40;99.90;;;;;;2090295;28;20693;-71
2023/04/19 03:36:09;;;;;;;6.35;5.75;;;12.40;99.90;;;;;;2091128;28;20063;-72
2023/04/19 03:37:09;;;;;;;7.75;5.60;;;12.40;99.90;;;;;;2092167;28;20028;-72
2023/04/19 03:38:10;;;;;;;6.60;5.57;;;12.40;99.90;;;;;;2089835;28;20484;-72
2023/04/19 03:39:11;;;;;;;6.43;5.82;;;12.40;99.90;;;;;;2092113;28;20551;-72
2023/04/19 03:40:11;;;;;;;9.95;5.82;;;12.40;99.90;;;;;;2091775;28;20033;-72
2023/04/19 03:41:25;;;;;;;6.78;5.90;;;12.40;99.90;;;;;;2091630;28;20071;-71
2023/04/19 03:42:26;;;;;;;5.68;5.13;;;12.40;99.90;;;;;;2093624;28;20031;-71
2023/04/19 03:43:26;;;;;;;5.93;5.43;;;12.40;99.90;;;;;;2092818;28;20940;-72
2023/04/19 03:44:27;;;;;;;9.55;5.80;;;12.30;99.90;;;;;;2093148;28;20056;-71
2023/04/19 03:45:27;;;;;;;5.85;5.32;;;12.30;99.90;;;;;;2093436;28;20100;-72
2023/04/19 03:46:30;;;;;;;5.78;5.05;;;12.30;99.90;;;;;;2092995;28;20461;-72
2023/04/19 03:47:30;;;;;;;5.47;4.97;;;12.30;99.90;;;;;;2095216;28;20027;-71
2023/04/19 03:48:31;;;;;;;6.90;5.25;;;12.30;99.90;;;;;;2092522;28;20020;-71
2023/04/19 03:49:32;;;;;;;5.63;5.13;;;12.30;99.90;;;;;;2091633;28;20055;-71
2023/04/19 03:50:32;;;;;;;9.20;5.35;;;12.30;99.90;;;;;;2093804;28;20392;-71
2023/04/19 03:51:33;;;;;;;5.97;5.47;;;12.30;99.90;;;;;;2084212;28;20569;-71
2023/04/19 03:52:33;;;;;;;5.93;5.32;;;12.30;99.90;;;;;;2091510;28;20021;-71
2023/04/19 03:53:35;;;;;;;6.40;5.05;;;12.20;99.90;;;;;;2094076;28;20508;-72
2023/04/19 03:54:35;;;;;;;5.45;4.95;;;12.20;99.90;;;;;;2094233;28;20032;-72
2023/04/19 03:55:36;;;;;;;5.70;5.05;;;12.20;99.90;;;;;;2092032;28;20142;-71
2023/04/19 03:56:36;;;;;;;7.57;5.22;;;12.20;99.90;;;;;;2090289;28;20070;-71
2023/04/19 03:57:37;;;;;;;5.95;5.38;;;12.20;99.90;;;;;;2093671;28;20140;-71
2023/04/19 03:58:37;;;;;;;8.73;5.03;;;12.20;99.90;;;;;;2093390;28;20024;-71
2023/04/19 03:59:38;;;;;;;5.97;5.47;;;12.10;99.90;;;;;;2093600;28;20036;-71
2023/04/19 04:00:39;;;;;;;5.53;4.97;;;12.10;99.90;;;;;;2085338;28;20044;-71
2023/04/19 04:01:40;;;;;;;5.85;5.28;;;12.10;99.90;;;;;;2096190;28;20035;-71
2023/04/19 04:02:41;;;;;;;5.72;5.18;;;12.10;99.90;;;;;;2091544;28;20021;-71
2023/04/19 04:03:41;;;;;;;6.93;5.18;;;12.10;99.90;;;;;;2092882;28;20036;-71
2023/04/19 04:04:42;;;;;;;8.68;5.90;;;12.00;99.90;;;;;;2091919;28;20430;-71
2023/04/19 04:05:42;;;;;;;6.38;5.50;;;12.00;99.90;;;;;;2091681;28;20421;-71
2023/04/19 04:06:43;;;;;;;6.13;4.82;;;12.00;99.90;;;;;;2094130;28;20036;-71
2023/04/19 04:07:44;;;;;;;6.85;5.18;;;12.00;99.90;;;;;;2093526;28;20485;-71
2023/04/19 04:08:45;;;;;;;6.63;5.50;;;12.00;99.90;;;;;;2094390;28;20048;-71
2023/04/19 04:09:47;;;;;;;6.18;5.50;;;12.00;99.90;;;;;;2095317;28;20029;-72
2023/04/19 04:10:47;;;;;;;6.68;5.65;;;12.00;99.90;;;;;;2092756;28;20119;-72
2023/04/19 04:11:48;;;;;;;7.30;5.95;;;12.00;99.90;;;;;;2092058;28;20032;-71
2023/04/19 04:12:48;;;;;;;6.03;5.38;;;12.00;99.90;;;;;;2092810;28;20123;-71
2023/04/19 04:13:49;;;;;;;6.22;5.63;;;11.90;99.90;;;;;;2094039;28;20025;-71
2023/04/19 04:14:49;;;;;;;6.43;5.70;;;11.90;99.90;;;;;;2095245;28;20032;-72
2023/04/19 04:15:50;;;;;;;6.63;5.90;;;11.90;99.90;;;;;;2092278;28;20044;-72
2023/04/19 04:16:50;;;;;;;6.07;5.20;;;11.90;99.90;;;;;;2094284;28;20391;-71
2023/04/19 04:17:51;;;;;;;7.63;5.38;;;11.90;99.90;;;;;;2094118;28;20727;-72
2023/04/19 04:18:51;;;;;;;6.47;5.35;;;11.90;99.90;;;;;;2090050;28;20056;-71
2023/04/19 04:19:52;;;;;;;6.20;5.60;;;11.90;99.90;;;;;;2092317;28;20487;-71
2023/04/19 04:20:53;;;;;;;6.53;5.78;;;11.80;99.90;;;;;;2091811;28;20050;-72
2023/04/19 04:21:53;;;;;;;8.45;5.47;;;11.80;99.90;;;;;;2094305;28;20047;-71
2023/04/19 04:22:54;;;;;;;6.45;5.47;;;11.80;99.80;;;;;;2091687;28;20039;-72
2023/04/19 04:23:55;;;;;;;5.82;5.22;;;11.80;99.90;;;;;;2091023;28;20879;-71
2023/04/19 04:24:57;;;;;;;7.80;5.45;;;11.80;99.90;;;;;;2091566;28;20404;-71
2023/04/19 04:25:59;;;;;;;6.80;6.10;;;11.80;99.60;;;;;;2093362;28;20679;-72
2023/04/19 04:27:02;;;;;;;7.28;5.78;;;11.70;99.50;;;;;;2094807;28;20060;-71
2023/04/19 04:28:03;;;;;;;8.75;5.85;;;11.70;99.50;;;;;;2096252;28;20031;-71
2023/04/19 04:29:04;;;;;;;8.98;6.25;;;11.70;99.60;;;;;;2092505;28;20025;-71
2023/04/19 04:30:06;;;;;;;7.07;5.50;;;11.70;99.10;;;;;;2088615;28;20035;-72
2023/04/19 04:31:06;;;;;;;6.63;5.95;;;11.70;99.10;;;;;;2092949;28;20017;-72
2023/04/19 04:32:09;;;;;;;7.97;6.00;;;11.70;99.00;;;;;;2090540;28;20060;-72
2023/04/19 04:33:10;;;;;;;6.60;6.00;;;11.70;99.10;;;;;;2091587;28;20387;-72
2023/04/19 04:34:11;;;;;;;6.05;5.45;;;11.70;99.20;;;;;;2089664;28;20032;-72
2023/04/19 04:35:12;;;;;;;6.53;5.85;;;11.70;99.30;;;;;;2091759;28;20058;-72
2023/04/19 04:36:12;;;;;;;6.30;5.65;;;11.70;99.20;;;;;;2092255;28;20388;-72
2023/04/19 04:37:13;;;;;;;6.18;5.57;;;11.60;99.10;;;;;;2089191;28;20025;-72
2023/04/19 04:38:14;;;;;;;6.75;6.05;;;11.70;99.20;;;;;;2092770;28;20031;-71
2023/04/19 04:39:15;;;;;;;6.55;5.95;;;11.60;99.20;;;;;;2091271;28;20073;-72
2023/04/19 04:40:15;;;;;;;7.03;6.32;;;11.60;99.30;;;;;;2090287;28;20081;-74
2023/04/19 04:41:16;;;;;;;7.85;6.55;;;11.60;99.20;;;;;;2091465;28;20040;-72
2023/04/19 04:42:20;;;;;;;7.80;6.05;;;11.60;99.30;;;;;;2094967;28;20033;-72
2023/04/19 04:43:22;;;;;;;6.28;5.70;;;11.60;99.20;;;;;;2091220;28;20031;-72
2023/04/19 04:44:23;;;;;;;6.40;5.70;;;11.60;99.30;;;;;;2092386;28;20028;-72
2023/04/19 04:45:23;;;;;;;6.75;6.10;;;11.60;99.60;;;;;;2092522;28;20025;-72
2023/04/19 04:46:24;;;;;;;9.18;6.03;;;11.60;99.60;;;;;;2094051;28;20048;-72
2023/04/19 04:47:30;;;;;;;6.88;6.25;;;11.50;99.50;;;;;;2100007;28;20028;-73
2023/04/19 04:48:31;;;;;;;7.00;5.97;;;11.50;99.60;;;;;;2092577;28;20024;-72
2023/04/19 04:49:32;;;;;;;6.82;5.88;;;11.50;99.80;;;;;;2090481;28;20032;-72
2023/04/19 04:50:32;;;;;;;6.55;5.95;;;11.50;99.90;;;;;;2091570;28;20025;-72
2023/04/19 04:51:33;;;;;;;7.20;6.50;;;11.50;99.90;;;;;;2092338;28;20033;-72
2023/04/19 04:52:34;;;;;;;7.75;6.53;;;11.50;99.90;;;;;;2094120;28;20082;-72
2023/04/19 04:53:34;;;;;;;8.25;7.03;;;11.50;99.90;;;;;;2093564;28;20025;-72
2023/04/19 04:54:35;;;;;;;9.98;7.05;;;11.50;99.90;;;;;;2095411;28;20031;-71
2023/04/19 04:55:35;;;;;;;11.25;7.03;;;11.50;99.90;;;;;;2094824;28;20032;-72
2023/04/19 04:56:36;;;;;;;8.80;6.88;;;11.50;99.90;;;;;;2093365;28;20032;-72
2023/04/19 04:57:37;;;;;;;10.52;8.05;;;11.50;99.90;;;;;;2094153;28;20131;-72
2023/04/19 04:58:37;;;;;;;9.45;6.20;;;11.40;99.90;;;;;;2097146;28;20099;-71
2023/04/19 04:59:38;;;;;;;7.68;6.97;;;11.40;99.90;;;;;;2093184;28;20082;-72
2023/04/19 05:00:38;;;;;;;9.82;6.93;;;11.40;99.90;;;;;;2092997;28;20033;-72
2023/04/19 05:01:39;;;;;;;7.80;7.00;;;11.40;99.90;;;;;;2094753;28;20324;-72
2023/04/19 05:02:40;;;;;;;9.30;6.43;;;11.40;99.90;;;;;;2093258;28;20499;-72
2023/04/19 05:03:41;;;;;;;10.80;7.13;;;11.40;99.90;;;;;;2091846;28;20059;-72
2023/04/19 05:04:41;;;;;;;8.27;7.18;;;11.40;99.90;;;;;;2093363;28;20686;-72
2023/04/19 05:05:42;;;;;;;8.85;7.22;;;11.40;99.90;;;;;;2094425;28;20029;-72
2023/04/19 05:06:43;;;;;;;9.38;7.07;;;11.30;99.90;;;;;;2094735;28;20449;-72
2023/04/19 05:07:43;;;;;;;11.73;7.32;;;11.30;99.90;;;;;;2095826;28;20016;-72
2023/04/19 05:08:44;;;;;;;10.95;7.63;;;11.30;99.90;;;;;;2098599;28;20020;-72
2023/04/19 05:09:45;;;;;;;11.70;7.70;;;11.30;99.90;;;;;;2094565;28;20021;-72
2023/04/19 05:10:45;;;;;;;10.38;7.78;;;11.30;99.90;;;;;;2093661;28;20021;-72
2023/04/19 05:11:46;;;;;;;17.23;8.27;;;11.30;99.90;;;;;;2093007;28;20554;-72